createdAt,value
2023-03-22T00:00:15.123Z,8.40
2023-03-22T00:02:41.595Z,15.95
2023-03-22T00:05:09.622Z,10.20
2023-03-22T00:07:37.708Z,7.97
2023-03-22T00:10:05.449Z,8.63
2023-03-22T00:12:31.908Z,8.50
2023-03-22T00:15:00.149Z,7.53
2023-03-22T00:17:26.761Z,8.05
2023-03-22T00:19:54.492Z,12.50
2023-03-22T00:22:21.815Z,6.90
2023-03-22T00:24:48.286Z,9.80
2023-03-22T00:27:14.875Z,10.25
2023-03-22T00:29:41.725Z,8.63
2023-03-22T00:32:08.465Z,11.65
2023-03-22T00:34:34.973Z,9.18
2023-03-22T00:37:01.965Z,11.38
2023-03-22T00:39:28.515Z,11.77
2023-03-22T00:41:55.020Z,10.75
2023-03-22T00:44:21.548Z,9.48
2023-03-22T00:46:48.042Z,16.08
2023-03-22T00:49:14.499Z,8.55
2023-03-22T00:51:41.054Z,12.35
2023-03-22T00:54:07.474Z,12.13
2023-03-22T00:56:34.060Z,10.07
2023-03-22T00:59:00.672Z,11.32
2023-03-22T01:01:28.033Z,9.85
2023-03-22T01:03:54.934Z,12.13
2023-03-22T01:06:21.389Z,13.90
2023-03-22T01:08:50.755Z,8.45
2023-03-22T01:11:18.233Z,9.90
2023-03-22T01:13:45.602Z,12.15
2023-03-22T01:16:13.253Z,10.85
2023-03-22T01:18:40.232Z,11.85
2023-03-22T01:21:07.050Z,13.48
2023-03-22T01:23:33.807Z,12.82
2023-03-22T01:26:01.391Z,10.73
2023-03-22T01:28:28.653Z,10.68
2023-03-22T01:30:55.914Z,11.98
2023-03-22T01:33:22.626Z,11.68
2023-03-22T01:35:49.073Z,13.02
2023-03-22T01:38:15.588Z,12.18
2023-03-22T01:40:42.363Z,12.05
2023-03-22T01:43:18.023Z,11.13
2023-03-22T01:45:48.882Z,10.07
2023-03-22T01:48:25.545Z,12.30
2023-03-22T01:50:58.694Z,11.65
2023-03-22T01:53:27.066Z,11.68
2023-03-22T01:55:55.696Z,12.63
2023-03-22T01:58:22.245Z,14.15
2023-03-22T02:00:50.479Z,11.18
2023-03-22T02:03:24.911Z,13.57
2023-03-22T02:05:51.680Z,15.07
2023-03-22T02:08:18.222Z,11.98
2023-03-22T02:10:44.636Z,11.15
2023-03-22T02:13:33.365Z,13.40
2023-03-22T02:16:29.750Z,11.18
2023-03-22T02:19:24.147Z,12.88
2023-03-22T02:22:39.769Z,10.18
2023-03-22T02:25:57.081Z,10.73
2023-03-22T02:28:49.910Z,10.02
2023-03-22T02:31:55.586Z,12.90
2023-03-22T02:34:43.128Z,16.15
2023-03-22T02:37:37.741Z,15.23
2023-03-22T02:40:23.039Z,14.13
2023-03-22T02:43:01.671Z,19.42
2023-03-22T02:45:45.688Z,14.27
2023-03-22T02:50:56.515Z,13.65
2023-03-22T02:53:46.308Z,12.45
2023-03-22T02:56:34.294Z,17.02
2023-03-22T02:59:04.642Z,13.60
2023-03-22T03:01:40.616Z,14.75
2023-03-22T03:04:11.063Z,13.23
2023-03-22T03:06:46.160Z,16.05
2023-03-22T03:09:18.163Z,10.30
2023-03-22T03:11:50.329Z,16.08
2023-03-22T03:14:32.348Z,11.15
2023-03-22T03:17:02.570Z,13.32
2023-03-22T03:19:41.125Z,15.35
2023-03-22T03:22:37.486Z,14.65
2023-03-22T03:25:11.382Z,13.57
2023-03-22T03:27:50.101Z,14.40
2023-03-22T03:30:25.184Z,16.10
2023-03-22T03:32:55.892Z,14.32
2023-03-22T03:35:30.900Z,16.00
2023-03-22T03:38:02.787Z,13.93
2023-03-22T03:40:34.066Z,13.15
2023-03-22T03:43:03.496Z,13.88
2023-03-22T03:45:30.334Z,13.77
2023-03-22T03:48:00.710Z,11.82
2023-03-22T03:50:28.179Z,13.48
2023-03-22T03:52:56.100Z,13.50
2023-03-22T03:55:24.101Z,14.27
2023-03-22T03:57:50.821Z,15.02
2023-03-22T04:00:17.790Z,11.95
2023-03-22T04:02:44.869Z,14.02
2023-03-22T04:05:12.890Z,12.73
2023-03-22T04:07:40.307Z,15.63
2023-03-22T04:10:07.596Z,14.57
2023-03-22T04:12:34.383Z,13.02
2023-03-22T04:15:01.072Z,13.27
2023-03-22T04:17:29.430Z,15.52
2023-03-22T04:19:57.125Z,13.45
2023-03-22T04:22:25.108Z,16.40
2023-03-22T04:24:51.681Z,16.50
2023-03-22T04:27:18.643Z,12.13
2023-03-22T04:29:52.534Z,12.30
2023-03-22T04:32:19.462Z,14.40
2023-03-22T04:34:46.416Z,14.63
2023-03-22T04:37:14.911Z,12.10
2023-03-22T04:39:41.783Z,14.13
2023-03-22T04:42:08.660Z,15.13
2023-03-22T04:44:35.445Z,13.52
2023-03-22T04:47:02.162Z,15.55
2023-03-22T04:49:29.236Z,14.07
2023-03-22T04:51:56.107Z,15.40
2023-03-22T04:54:23.720Z,16.02
2023-03-22T04:56:50.860Z,17.83
2023-03-22T04:59:20.266Z,11.70
2023-03-22T05:01:51.408Z,13.43
2023-03-22T05:04:19.257Z,13.68
2023-03-22T05:06:46.528Z,15.27
2023-03-22T05:09:13.700Z,15.38
2023-03-22T05:11:40.753Z,18.35
2023-03-22T05:14:09.114Z,16.40
2023-03-22T05:16:36.366Z,13.98
2023-03-22T05:19:03.155Z,22.55
2023-03-22T05:21:36.809Z,15.55
2023-03-22T05:26:29.854Z,15.43
2023-03-22T05:28:56.871Z,18.02
2023-03-22T05:31:23.566Z,14.85
2023-03-22T05:33:51.978Z,13.07
2023-03-22T05:36:20.462Z,15.38
2023-03-22T05:38:47.307Z,14.13
2023-03-22T05:41:14.933Z,16.45
2023-03-22T05:43:41.551Z,17.20
2023-03-22T05:46:12.134Z,16.98
2023-03-22T05:48:39.996Z,15.85
2023-03-22T05:51:13.471Z,16.88
2023-03-22T05:53:40.032Z,12.48
2023-03-22T05:56:09.909Z,16.00
2023-03-22T05:58:36.639Z,33.20
2023-03-22T06:01:12.162Z,17.52
2023-03-22T06:03:39.585Z,14.75
2023-03-22T06:06:10.516Z,16.70
2023-03-22T06:08:38.743Z,17.55
2023-03-22T06:11:06.569Z,16.85
2023-03-22T06:13:34.118Z,17.50
2023-03-22T06:16:02.754Z,14.85
2023-03-22T06:18:30.399Z,18.48
2023-03-22T06:20:56.977Z,21.20
2023-03-22T06:23:25.833Z,18.52
2023-03-22T06:25:59.634Z,16.60
2023-03-22T06:28:29.798Z,20.42
2023-03-22T06:30:57.275Z,13.35
2023-03-22T06:33:23.711Z,14.63
2023-03-22T06:35:50.259Z,14.95
2023-03-22T06:38:16.812Z,14.23
2023-03-22T06:40:43.457Z,12.88
2023-03-22T06:43:09.950Z,14.93
2023-03-22T06:45:36.475Z,15.50
2023-03-22T06:48:03.156Z,13.70
2023-03-22T06:50:32.533Z,14.80
2023-03-22T06:52:58.982Z,14.07
2023-03-22T06:55:25.517Z,13.45
2023-03-22T06:57:52.017Z,12.68
2023-03-22T07:00:18.724Z,16.45
2023-03-22T07:02:45.587Z,12.82
2023-03-22T07:05:14.022Z,10.00
2023-03-22T07:07:40.569Z,13.80
2023-03-22T07:10:07.943Z,18.48
2023-03-22T07:12:34.773Z,11.30
2023-03-22T07:15:02.137Z,13.73
2023-03-22T07:17:28.559Z,13.32
2023-03-22T07:19:55.305Z,11.65
2023-03-22T07:22:22.371Z,10.85
2023-03-22T07:24:56.995Z,10.73
2023-03-22T07:27:25.345Z,9.93
2023-03-22T07:29:51.785Z,9.40
2023-03-22T07:32:20.130Z,9.70
2023-03-22T07:34:47.264Z,7.88
2023-03-22T07:37:13.762Z,9.82
2023-03-22T07:39:40.203Z,7.28
2023-03-22T07:42:06.889Z,8.95
2023-03-22T07:44:33.539Z,8.85
2023-03-22T07:47:00.069Z,11.13
2023-03-22T07:49:27.208Z,13.43
2023-03-22T07:51:53.768Z,12.02
2023-03-22T07:54:32.484Z,11.98
2023-03-22T07:56:59.716Z,6.63
2023-03-22T07:59:26.344Z,7.82
2023-03-22T08:01:53.474Z,9.63
2023-03-22T08:04:21.109Z,8.68
2023-03-22T08:06:47.806Z,9.32
2023-03-22T08:09:14.900Z,7.32
2023-03-22T08:11:41.948Z,10.48
2023-03-22T08:14:09.224Z,6.88
2023-03-22T08:16:36.048Z,8.68
2023-03-22T08:19:03.194Z,6.63
2023-03-22T08:21:29.997Z,6.13
2023-03-22T08:23:57.517Z,6.82
2023-03-22T08:26:24.755Z,7.65
2023-03-22T08:28:51.260Z,7.15
2023-03-22T08:31:20.235Z,7.75
2023-03-22T08:33:47.485Z,6.43
2023-03-22T08:36:17.855Z,8.13
2023-03-22T08:38:45.282Z,9.48
2023-03-22T08:41:13.126Z,7.72
2023-03-22T08:43:39.591Z,8.15
2023-03-22T08:46:06.272Z,8.68
2023-03-22T08:48:32.945Z,9.20
2023-03-22T08:51:02.367Z,8.98
2023-03-22T08:53:28.955Z,4.88
2023-03-22T08:55:58.053Z,6.60
2023-03-22T08:58:30.981Z,5.85
2023-03-22T09:00:57.590Z,6.15
2023-03-22T09:03:25.055Z,9.48
2023-03-22T09:05:51.852Z,9.50
2023-03-22T09:08:19.852Z,8.65
2023-03-22T09:10:52.140Z,6.93
2023-03-22T09:13:19.944Z,6.80
2023-03-22T09:15:47.377Z,8.25
2023-03-22T09:18:14.630Z,5.95
2023-03-22T09:20:41.533Z,8.02
2023-03-22T09:23:08.753Z,7.25
2023-03-22T09:25:35.320Z,7.63
2023-03-22T09:28:02.461Z,7.28
2023-03-22T09:30:29.086Z,5.85
2023-03-22T09:32:56.476Z,4.88
2023-03-22T09:35:23.030Z,5.60
2023-03-22T09:37:49.633Z,4.25
2023-03-22T09:40:17.903Z,4.57
2023-03-22T09:42:47.471Z,8.63
2023-03-22T09:45:18.874Z,3.95
2023-03-22T09:47:53.356Z,4.72
2023-03-22T09:50:41.204Z,3.88
2023-03-22T09:53:13.885Z,5.30
2023-03-22T09:56:06.259Z,6.38
2023-03-22T09:58:42.210Z,6.15
2023-03-22T10:01:29.743Z,4.60
2023-03-22T10:04:06.357Z,4.88
2023-03-22T10:06:32.935Z,6.40
2023-03-22T10:09:17.957Z,4.72
2023-03-22T10:11:55.868Z,4.13
2023-03-22T10:14:50.668Z,5.65
2023-03-22T10:17:26.666Z,4.07
2023-03-22T10:20:09.339Z,6.88
2023-03-22T10:22:43.930Z,4.90
2023-03-22T10:25:17.492Z,3.78
2023-03-22T10:27:46.470Z,9.23
2023-03-22T10:30:23.164Z,3.83
2023-03-22T10:33:01.016Z,3.58
2023-03-22T10:35:28.670Z,5.93
2023-03-22T10:37:58.791Z,5.20
2023-03-22T10:40:30.166Z,2.67
2023-03-22T10:43:03.570Z,2.95
2023-03-22T10:48:07.849Z,5.28
2023-03-22T10:50:37.616Z,6.50
2023-03-22T10:53:30.164Z,4.20
2023-03-22T10:55:56.888Z,3.92
2023-03-22T10:58:30.320Z,6.28
2023-03-22T11:00:59.869Z,4.03
2023-03-22T11:03:36.135Z,3.60
2023-03-22T11:06:13.277Z,3.22
2023-03-22T11:08:49.716Z,4.63
2023-03-22T11:11:38.617Z,4.32
2023-03-22T11:14:21.153Z,2.90
2023-03-22T11:16:54.990Z,3.33
2023-03-22T11:19:26.668Z,4.70
2023-03-22T11:21:56.310Z,2.08
2023-03-22T11:24:26.438Z,4.40
2023-03-22T11:27:03.888Z,3.83
2023-03-22T11:29:40.005Z,2.70
2023-03-22T11:32:21.303Z,5.05
2023-03-22T11:34:48.360Z,4.05
2023-03-22T11:37:18.397Z,1.63
2023-03-22T11:39:50.761Z,5.55
2023-03-22T11:42:21.640Z,4.13
2023-03-22T11:44:48.512Z,2.70
2023-03-22T11:47:15.742Z,3.53
2023-03-22T11:49:49.906Z,2.35
2023-03-22T11:52:20.041Z,4.25
2023-03-22T11:54:47.283Z,3.50
2023-03-22T11:57:18.625Z,5.28
2023-03-22T11:59:57.354Z,2.65
2023-03-22T12:02:27.274Z,4.05
2023-03-22T12:05:01.859Z,4.03
2023-03-22T12:07:30.098Z,4.47
2023-03-22T12:10:11.134Z,2.47
2023-03-22T12:12:43.900Z,2.97
2023-03-22T12:15:19.086Z,6.18
2023-03-22T12:17:50.170Z,1.38
2023-03-22T12:20:29.732Z,3.40
2023-03-22T12:22:57.399Z,6.18
2023-03-22T12:25:28.600Z,3.22
2023-03-22T12:27:58.614Z,4.05
2023-03-22T12:30:33.768Z,4.07
2023-03-22T12:33:21.950Z,2.22
2023-03-22T12:35:51.720Z,3.33
2023-03-22T12:38:24.785Z,1.83
2023-03-22T12:40:54.366Z,3.35
2023-03-22T12:43:40.351Z,1.58
2023-03-22T12:46:11.562Z,1.77
2023-03-22T12:49:07.966Z,3.70
2023-03-22T12:51:34.829Z,2.08
2023-03-22T12:54:02.459Z,6.05
2023-03-22T12:56:44.878Z,2.78
2023-03-22T12:59:17.483Z,4.55
2023-03-22T13:01:56.450Z,2.42
2023-03-22T13:04:25.960Z,6.93
2023-03-22T13:06:53.578Z,3.20
2023-03-22T13:09:29.567Z,2.03
2023-03-22T13:12:18.499Z,3.47
2023-03-22T13:14:51.369Z,2.72
2023-03-22T13:17:23.966Z,1.63
2023-03-22T13:20:06.767Z,3.50
2023-03-22T13:22:36.439Z,1.83
2023-03-22T13:25:29.108Z,4.35
2023-03-22T13:28:03.414Z,2.38
2023-03-22T13:30:46.695Z,2.85
2023-03-22T13:35:54.954Z,2.70
2023-03-22T13:38:25.471Z,1.42
2023-03-22T13:41:08.006Z,2.97
2023-03-22T13:43:43.423Z,4.23
2023-03-22T13:46:27.574Z,1.85
2023-03-22T13:49:01.053Z,2.95
2023-03-22T13:51:34.220Z,3.90
2023-03-22T13:54:13.367Z,5.18
2023-03-22T13:56:43.131Z,2.42
2023-03-22T13:59:20.545Z,2.78
2023-03-22T14:01:53.343Z,2.70
2023-03-22T14:04:28.591Z,2.50
2023-03-22T14:07:11.834Z,2.35
2023-03-22T14:09:50.590Z,2.75
2023-03-22T14:12:29.671Z,3.30
2023-03-22T14:15:00.824Z,3.63
2023-03-22T14:17:37.857Z,2.50
2023-03-22T14:20:10.806Z,2.95
